createdAt,value
2023-05-21T00:01:32.324Z,23.00
2023-05-21T00:06:38.073Z,26.00
2023-05-21T00:11:39.668Z,20.30
2023-05-21T00:16:41.313Z,16.60
2023-05-21T00:21:45.890Z,19.40
2023-05-21T00:26:47.553Z,21.20
2023-05-21T00:31:51.179Z,21.10
2023-05-21T00:36:53.769Z,16.60
2023-05-21T00:41:56.958Z,18.60
2023-05-21T00:52:01.703Z,14.40
2023-05-21T00:57:04.194Z,17.50
2023-05-21T01:02:06.889Z,12.90
2023-05-21T01:07:10.014Z,16.80
2023-05-21T01:12:13.294Z,12.10
2023-05-21T01:17:15.996Z,11.40
2023-05-21T01:22:19.414Z,15.30
2023-05-21T01:27:21.667Z,15.30
2023-05-21T01:32:45.275Z,25.20
2023-05-21T01:38:04.617Z,22.60
2023-05-21T01:43:07.795Z,20.30
2023-05-21T01:53:11.348Z,14.90
2023-05-21T01:58:12.951Z,19.70
2023-05-21T02:03:17.567Z,21.00
2023-05-21T02:08:20.166Z,20.70
2023-05-21T02:13:24.993Z,22.60
2023-05-21T02:18:29.346Z,21.10
2023-05-21T02:23:30.936Z,20.50
2023-05-21T02:28:32.895Z,19.80
2023-05-21T02:33:34.452Z,19.10
2023-05-21T02:38:38.378Z,19.90
2023-05-21T02:43:40.175Z,17.70
2023-05-21T02:48:41.688Z,20.20
2023-05-21T02:53:43.268Z,18.60
2023-05-21T02:58:44.806Z,18.10
2023-05-21T03:03:46.500Z,19.90
2023-05-21T03:08:48.054Z,14.70
2023-05-21T03:13:49.636Z,14.10
2023-05-21T03:18:51.472Z,12.50
2023-05-21T03:23:53.095Z,14.60
2023-05-21T03:28:55.043Z,19.00
2023-05-21T03:33:56.583Z,21.20
2023-05-21T03:38:58.120Z,23.60
2023-05-21T03:43:59.621Z,20.10
2023-05-21T03:49:01.159Z,16.50
2023-05-21T03:54:02.700Z,17.10
2023-05-21T03:59:04.307Z,14.10
2023-05-21T04:04:06.233Z,16.50
2023-05-21T04:09:08.215Z,15.10
2023-05-21T04:14:09.761Z,12.10
2023-05-21T04:19:11.343Z,15.00
2023-05-21T04:24:13.037Z,15.80
2023-05-21T04:29:18.179Z,14.80
2023-05-21T04:34:19.979Z,10.30
2023-05-21T04:39:21.724Z,8.70
2023-05-21T04:44:23.410Z,8.90
2023-05-21T04:49:25.676Z,5.70
2023-05-21T04:54:27.793Z,5.40
2023-05-21T04:59:29.527Z,5.60
2023-05-21T05:04:31.911Z,6.10
2023-05-21T05:09:33.509Z,8.60
2023-05-21T05:14:35.084Z,12.70
2023-05-21T05:19:36.812Z,10.30
2023-05-21T05:24:38.443Z,11.30
2023-05-21T05:29:39.947Z,13.10
2023-05-21T05:34:42.796Z,10.50
2023-05-21T05:39:44.464Z,10.60
2023-05-21T05:44:45.995Z,9.50
2023-05-21T05:49:47.897Z,7.10
2023-05-21T05:54:49.426Z,5.40
2023-05-21T05:59:51.016Z,5.00
2023-05-21T06:04:52.557Z,8.20
2023-05-21T06:09:54.083Z,6.10
2023-05-21T06:14:55.901Z,5.70
2023-05-21T06:19:57.775Z,8.30
2023-05-21T06:24:59.407Z,7.20
2023-05-21T06:30:00.968Z,4.80
2023-05-21T06:35:02.532Z,5.30
2023-05-21T06:40:04.892Z,5.30
2023-05-21T06:45:07.197Z,4.80
2023-05-21T06:50:09.359Z,4.40
2023-05-21T06:55:11.064Z,5.80
2023-05-21T07:00:14.045Z,6.80
2023-05-21T07:05:15.738Z,7.90
2023-05-21T07:10:17.377Z,4.90
2023-05-21T07:15:18.999Z,5.00
2023-05-21T07:20:20.719Z,6.40
2023-05-21T07:25:22.272Z,4.50
2023-05-21T07:30:23.974Z,6.40
2023-05-21T07:35:25.937Z,4.90
2023-05-21T07:40:27.456Z,5.50
2023-05-21T07:45:29.000Z,5.60
2023-05-21T07:50:31.416Z,5.30
2023-05-21T07:55:32.981Z,5.10
2023-05-21T08:00:44.418Z,8.10
2023-05-21T08:05:50.870Z,5.20
2023-05-21T08:10:52.661Z,5.10
2023-05-21T08:21:09.999Z,4.90
2023-05-21T08:26:11.960Z,4.20
2023-05-21T08:31:13.568Z,6.50
2023-05-21T08:36:15.085Z,8.50
2023-05-21T08:41:18.064Z,5.30
2023-05-21T08:46:23.806Z,5.50
2023-05-21T08:51:27.029Z,5.40
2023-05-21T08:56:31.404Z,3.70
2023-05-21T09:01:33.550Z,4.10
2023-05-21T09:06:35.735Z,4.60
2023-05-21T09:11:37.694Z,4.40
2023-05-21T09:16:39.559Z,5.10
2023-05-21T09:21:42.275Z,3.70
2023-05-21T09:26:44.205Z,5.20
2023-05-21T09:31:46.061Z,3.80
2023-05-21T09:36:49.431Z,3.90
2023-05-21T09:41:51.000Z,3.70
2023-05-21T09:46:57.933Z,3.90
2023-05-21T09:51:59.924Z,4.20
2023-05-21T09:57:04.349Z,3.70
2023-05-21T10:02:19.153Z,4.70
2023-05-21T10:07:26.293Z,4.10
2023-05-21T10:12:31.128Z,2.90
2023-05-21T10:17:33.146Z,3.10
2023-05-21T10:22:35.761Z,4.60
2023-05-21T10:27:37.664Z,5.50
2023-05-21T10:32:41.592Z,5.20
2023-05-21T10:37:46.684Z,3.50
2023-05-21T10:43:07.104Z,4.30
2023-05-21T10:48:26.173Z,3.80
2023-05-21T10:53:55.953Z,4.40
2023-05-21T10:59:22.328Z,3.40
2023-05-21T11:04:27.357Z,3.60
2023-05-21T11:09:28.876Z,2.50
2023-05-21T11:14:39.582Z,5.50
2023-05-21T11:19:43.812Z,4.00
2023-05-21T11:24:45.532Z,3.00
2023-05-21T11:29:47.456Z,5.40
2023-05-21T11:34:49.093Z,6.10
2023-05-21T11:39:51.826Z,7.30
2023-05-21T11:44:53.562Z,3.80
2023-05-21T11:49:57.231Z,5.60
2023-05-21T11:55:00.015Z,4.80
2023-05-21T12:00:11.871Z,6.70
2023-05-21T12:05:13.491Z,3.30
2023-05-21T12:10:15.014Z,3.70
2023-05-21T12:15:18.250Z,4.10
2023-05-21T12:20:20.093Z,4.30
2023-05-21T12:25:22.386Z,2.90
2023-05-21T12:30:25.801Z,4.00
2023-05-21T12:35:27.540Z,3.80
2023-05-21T12:40:40.699Z,3.20
2023-05-21T12:45:43.480Z,3.00
2023-05-21T12:50:45.576Z,3.60
2023-05-21T12:55:47.260Z,5.70
2023-05-21T13:00:49.368Z,6.10
2023-05-21T13:10:59.714Z,4.60
2023-05-21T13:16:02.051Z,5.20
2023-05-21T13:21:03.669Z,4.00
2023-05-21T13:26:05.299Z,4.80
2023-05-21T13:31:06.806Z,3.20
2023-05-21T13:36:08.501Z,3.80
2023-05-21T13:41:10.085Z,3.70
2023-05-21T13:46:11.835Z,2.70
2023-05-21T13:51:19.827Z,3.60
2023-05-21T14:01:29.243Z,3.60
2023-05-21T14:06:33.890Z,3.70
2023-05-21T14:11:35.844Z,4.10
2023-05-21T14:16:37.473Z,3.10
2023-05-21T14:21:39.156Z,2.70
2023-05-21T14:26:41.394Z,3.90
2023-05-21T14:31:42.995Z,5.90
2023-05-21T14:36:44.702Z,4.10
2023-05-21T14:41:46.317Z,3.50
2023-05-21T14:46:48.112Z,4.70
2023-05-21T14:51:49.646Z,2.80
2023-05-21T14:56:51.221Z,4.00
2023-05-21T15:01:52.799Z,3.30
2023-05-21T15:06:54.523Z,4.70
2023-05-21T15:11:56.065Z,2.60
2023-05-21T15:16:57.635Z,3.40
2023-05-21T15:21:59.342Z,3.80
2023-05-21T15:27:00.857Z,5.40
2023-05-21T15:32:05.226Z,3.10
2023-05-21T15:37:06.839Z,3.60
2023-05-21T15:42:08.776Z,3.40
2023-05-21T15:47:10.541Z,5.80
2023-05-21T15:52:12.223Z,4.10
2023-05-21T15:57:13.831Z,3.90
2023-05-21T16:02:15.415Z,2.70
2023-05-21T16:07:17.416Z,3.30
2023-05-21T16:12:19.097Z,3.70
2023-05-21T16:17:20.889Z,4.40
2023-05-21T16:22:23.938Z,4.00
2023-05-21T16:27:25.630Z,3.90
2023-05-21T16:32:28.499Z,3.30
2023-05-21T16:37:30.227Z,5.80
2023-05-21T16:42:31.745Z,3.80
2023-05-21T16:47:33.322Z,3.10
2023-05-21T16:52:35.038Z,5.00
2023-05-21T16:57:36.920Z,6.00
2023-05-21T17:02:38.790Z,5.40
2023-05-21T17:12:41.981Z,5.30
2023-05-21T17:17:43.660Z,4.90
2023-05-21T17:22:45.284Z,4.30
2023-05-21T17:27:47.020Z,3.90
2023-05-21T17:32:48.608Z,4.80
2023-05-21T17:37:50.290Z,6.00
2023-05-21T17:42:52.672Z,5.80
2023-05-21T17:47:55.257Z,6.10
2023-05-21T17:52:57.843Z,3.80
2023-05-21T17:57:59.521Z,3.50
2023-05-21T18:03:01.199Z,5.80
2023-05-21T18:08:02.986Z,4.50
2023-05-21T18:13:04.552Z,3.40
2023-05-21T18:18:06.214Z,3.70
2023-05-21T18:23:07.779Z,6.00
2023-05-21T18:28:10.025Z,5.80
2023-05-21T18:33:12.489Z,4.20
2023-05-21T18:43:17.755Z,5.20
2023-05-21T18:48:19.428Z,4.50
2023-05-21T18:53:20.988Z,4.20
2023-05-21T18:58:23.773Z,9.20
2023-05-21T19:03:26.138Z,16.30
2023-05-21T19:08:27.721Z,10.30
2023-05-21T19:13:29.586Z,7.10
2023-05-21T19:18:32.473Z,5.70
2023-05-21T19:23:44.665Z,5.50
2023-05-21T19:28:54.615Z,7.00
2023-05-21T19:33:56.604Z,7.40
2023-05-21T19:38:58.839Z,8.20
2023-05-21T19:44:01.003Z,8.30
2023-05-21T19:49:02.541Z,11.20
2023-05-21T19:54:04.171Z,18.10
2023-05-21T19:59:05.758Z,13.90
2023-05-21T20:04:07.341Z,12.00
2023-05-21T20:09:10.812Z,10.60
2023-05-21T20:14:13.585Z,12.10
2023-05-21T20:24:17.137Z,10.40
2023-05-21T20:29:18.666Z,13.00
2023-05-21T20:34:20.912Z,14.00
2023-05-21T20:39:22.964Z,10.80
2023-05-21T20:44:26.397Z,13.00
2023-05-21T20:49:28.566Z,16.30
2023-05-21T20:54:35.467Z,15.10
2023-05-21T20:59:37.030Z,16.20
2023-05-21T21:04:39.738Z,12.10
2023-05-21T21:09:41.511Z,6.40
2023-05-21T21:14:43.157Z,9.00
2023-05-21T21:19:44.725Z,9.20
2023-05-21T21:24:47.330Z,7.90
2023-05-21T21:29:48.948Z,10.50
2023-05-21T21:34:50.670Z,6.70
2023-05-21T21:39:52.725Z,6.70
2023-05-21T21:44:54.308Z,6.70
2023-05-21T21:49:56.096Z,8.10
2023-05-21T21:54:58.101Z,9.20
2023-05-21T22:00:00.125Z,8.30
2023-05-21T22:05:01.881Z,7.00
2023-05-21T22:10:03.633Z,8.10
2023-05-21T22:15:07.769Z,9.10
2023-05-21T22:20:10.688Z,13.90
2023-05-21T22:25:12.385Z,7.70
2023-05-21T22:30:13.984Z,6.70
2023-05-21T22:35:15.623Z,9.10
2023-05-21T22:40:17.182Z,8.10
2023-05-21T22:45:19.331Z,8.10
2023-05-21T22:50:21.090Z,7.50
2023-05-21T22:55:22.651Z,17.30
2023-05-21T23:00:24.295Z,12.10
2023-05-21T23:05:26.127Z,11.70
2023-05-21T23:10:27.738Z,13.40
2023-05-21T23:15:32.115Z,13.20
2023-05-21T23:20:33.801Z,10.30
2023-05-21T23:25:36.239Z,11.40
2023-05-21T23:30:41.000Z,13.40
2023-05-21T23:35:42.802Z,13.60
2023-05-21T23:40:44.473Z,12.60
2023-05-21T23:45:46.176Z,13.80
2023-05-21T23:50:47.779Z,10.80
2023-05-21T23:55:49.331Z,15.10
